Time;durP1;ratioP1;P1;durP2;ratioP2;P2;SDS_P1;SDS_P2;PMS_P1;PMS_P2;Temp;Humidity;BMP_temperature;BMP_pressure;BME280_temperature;BME280_humidity;BME280_pressure;Samples;Min_cycle;Max_cycle;Signal;HPM_P1;HPM_P2
2023/09/19 00:01:30;;;;;;;8.70;7.90;;;;;;;;;;4999944;28;20531;-72
2023/09/19 00:03:58;;;;;;;8.70;8.20;;;;;;;;;;4964165;28;20109;-73
2023/09/19 00:06:31;;;;;;;8.48;7.85;;;;;;;;;;4966073;28;20031;-73
2023/09/19 00:09:00;;;;;;;8.30;7.80;;;;;;;;;;4979964;28;20023;-73
2023/09/19 00:11:26;;;;;;;8.60;7.95;;;;;;;;;;4966600;28;20146;-73
2023/09/19 00:13:55;;;;;;;;;;;;;;;;;;4964807;28;20035;-73
2023/09/19 00:16:24;;;;;;;9.07;8.13;;;;;;;;;;4995537;28;19925;-72
2023/09/19 00:18:51;;;;;;;8.63;7.90;;;;;;;;;;4966608;28;20461;-72
2023/09/19 00:21:20;;;;;;;8.93;8.32;;;;;;;;;;4969892;28;20043;-73
2023/09/19 00:23:49;;;;;;;8.77;8.18;;;;;;;;;;4972689;28;20068;-73
2023/09/19 00:26:14;;;;;;;;;;;;;;;;;;4987062;28;20105;-73
2023/09/19 00:28:43;;;;;;;8.18;7.68;;;;;;;;;;4984549;28;19922;-73
2023/09/19 00:31:12;;;;;;;8.35;7.65;;;;;;;;;;4968640;28;20033;-73
2023/09/19 00:33:48;;;;;;;8.00;7.50;;;;;;;;;;4986028;28;20053;-74
2023/09/19 00:36:14;;;;;;;7.90;7.40;;;;;;;;;;4954236;28;20488;-73
2023/09/19 00:38:46;;;;;;;8.05;7.45;;;;;;;;;;5004724;28;20034;-73
2023/09/19 00:41:12;;;;;;;8.27;7.68;;;;;;;;;;4970726;28;20140;-74
2023/09/19 00:43:40;;;;;;;8.63;7.80;;;;;;;;;;4974307;28;20085;-72
2023/09/19 00:46:07;;;;;;;7.80;7.30;;;;;;;;;;4973554;28;20037;-73
2023/09/19 00:48:40;;;;;;;8.52;8.02;;;;;;;;;;4995147;28;20041;-72
2023/09/19 00:51:13;;;;;;;7.88;7.38;;;;;;;;;;4997662;28;20035;-74
2023/09/19 00:53:42;;;;;;;8.20;7.75;;;;;;;;;;4982041;28;20484;-74
2023/09/19 00:56:10;;;;;;;8.18;7.47;;;;;;;;;;4983300;28;20047;-75
2023/09/19 00:58:46;;;;;;;8.30;7.80;;;;;;;;;;4967590;28;20050;-74
2023/09/19 01:01:14;;;;;;;8.00;7.50;;;;;;;;;;4983732;28;20027;-74
2023/09/19 01:03:44;;;;;;;8.23;7.63;;;;;;;;;;5004621;28;20697;-73
2023/09/19 01:06:14;;;;;;;8.60;8.10;;;;;;;;;;4981540;28;20066;-73
2023/09/19 01:08:40;;;;;;;8.52;8.00;;;;;;;;;;4982514;28;20043;-73
2023/09/19 01:11:17;;;;;;;8.50;7.75;;;;;;;;;;4982231;28;20045;-73
2023/09/19 01:13:59;;;;;;;8.02;7.53;;;;;;;;;;4967934;28;20110;-73
2023/09/19 01:16:42;;;;;;;8.18;7.47;;;;;;;;;;4980218;28;20029;-73
2023/09/19 01:19:30;;;;;;;7.90;7.30;;;;;;;;;;4966009;28;20069;-75
2023/09/19 01:23:03;;;;;;;8.77;7.82;;;;;;;;;;4993282;28;20031;-72
2023/09/19 01:25:36;;;;;;;8.20;7.70;;;;;;;;;;4877236;29;20087;-72
2023/09/19 01:28:41;;;;;;;8.52;7.97;;;;;;;;;;4890638;29;20044;-73
2023/09/19 01:31:11;;;;;;;7.88;7.35;;;;;;;;;;4888732;29;20328;-74
2023/09/19 01:34:00;;;;;;;8.00;7.50;;;;;;;;;;4877609;29;20435;-72
2023/09/19 01:36:36;;;;;;;8.20;7.60;;;;;;;;;;4889070;29;20063;-72
2023/09/19 01:39:13;;;;;;;8.45;7.90;;;;;;;;;;4889650;29;20570;-73
2023/09/19 01:42:09;;;;;;;8.43;7.93;;;;;;;;;;4864528;29;20049;-72
2023/09/19 01:44:48;;;;;;;8.20;7.70;;;;;;;;;;4873152;29;20047;-73
2023/09/19 01:47:34;;;;;;;8.40;7.90;;;;;;;;;;4893713;29;20048;-72
2023/09/19 01:50:18;;;;;;;8.73;8.13;;;;;;;;;;4889868;29;20043;-72
2023/09/19 01:52:54;;;;;;;8.23;7.63;;;;;;;;;;4872252;29;20043;-73
2023/09/19 01:55:28;;;;;;;8.27;7.70;;;;;;;;;;4855468;28;20040;-72
2023/09/19 01:58:13;;;;;;;8.35;7.85;;;;;;;;;;4973666;28;20043;-72
2023/09/19 02:00:44;;;;;;;8.40;7.80;;;;;;;;;;4960270;28;20050;-73
2023/09/19 02:03:11;;;;;;;8.52;7.95;;;;;;;;;;4962687;28;20101;-72
2023/09/19 02:05:57;;;;;;;8.40;7.90;;;;;;;;;;4968286;28;20062;-72
2023/09/19 02:08:35;;;;;;;8.35;7.78;;;;;;;;;;4969438;28;20125;-73
2023/09/19 02:11:03;;;;;;;8.75;8.25;;;;;;;;;;4995959;28;20038;-73
2023/09/19 02:13:31;;;;;;;8.05;7.55;;;;;;;;;;4996961;28;20512;-72
2023/09/19 02:16:12;;;;;;;8.25;7.63;;;;;;;;;;4965978;28;20038;-72
2023/09/19 02:18:39;;;;;;;8.20;7.70;;;;;;;;;;4978264;28;20118;-72
2023/09/19 02:21:09;;;;;;;8.13;7.60;;;;;;;;;;4997931;28;20039;-72
2023/09/19 02:23:38;;;;;;;7.97;7.47;;;;;;;;;;4951933;28;20089;-73
2023/09/19 02:26:12;;;;;;;8.35;7.85;;;;;;;;;;4961826;28;20023;-74
2023/09/19 02:28:41;;;;;;;8.52;7.80;;;;;;;;;;4963028;28;20114;-72
2023/09/19 02:31:12;;;;;;;7.97;7.57;;;;;;;;;;4966393;28;20034;-73
2023/09/19 02:33:45;;;;;;;8.63;8.10;;;;;;;;;;4949278;28;20066;-72
2023/09/19 02:36:16;;;;;;;8.73;8.02;;;;;;;;;;4982525;28;20035;-73
2023/09/19 02:38:47;;;;;;;8.88;8.18;;;;;;;;;;4964944;28;20042;-74
2023/09/19 02:41:15;;;;;;;8.60;8.00;;;;;;;;;;4979595;28;20030;-72
2023/09/19 02:43:42;;;;;;;8.70;8.10;;;;;;;;;;4967585;28;20041;-73
2023/09/19 02:46:16;;;;;;;8.40;7.80;;;;;;;;;;4964794;28;20034;-73
2023/09/19 02:48:43;;;;;;;7.90;7.40;;;;;;;;;;4976990;28;20037;-74
2023/09/19 02:51:11;;;;;;;8.80;8.00;;;;;;;;;;4966288;28;20043;-73
2023/09/19 02:53:43;;;;;;;8.40;7.80;;;;;;;;;;4998316;28;20568;-72
2023/09/19 02:56:11;;;;;;;7.90;7.50;;;;;;;;;;4996369;28;20026;-73
2023/09/19 02:58:41;;;;;;;8.98;8.27;;;;;;;;;;4998540;28;20038;-73
2023/09/19 03:01:13;;;;;;;8.90;8.20;;;;;;;;;;4981527;28;20105;-72
2023/09/19 03:03:42;;;;;;;8.98;8.10;;;;;;;;;;4983154;28;20492;-72
2023/09/19 03:06:17;;;;;;;8.73;8.07;;;;;;;;;;4964694;28;20039;-73
2023/09/19 03:08:46;;;;;;;8.38;7.88;;;;;;;;;;4967085;28;20039;-72
2023/09/19 03:11:15;;;;;;;8.50;7.88;;;;;;;;;;4965005;28;20062;-73
2023/09/19 03:13:47;;;;;;;8.35;7.80;;;;;;;;;;4966458;28;20121;-74
2023/09/19 03:16:18;;;;;;;8.55;7.97;;;;;;;;;;4996766;28;20038;-74
2023/09/19 03:18:45;;;;;;;9.00;8.23;;;;;;;;;;4966957;28;20033;-73
2023/09/19 03:21:11;;;;;;;9.20;8.50;;;;;;;;;;4948266;28;20061;-73
2023/09/19 03:23:38;;;;;;;8.98;8.48;;;;;;;;;;4996869;28;20077;-72
2023/09/19 03:26:08;;;;;;;8.70;8.00;;;;;;;;;;4997322;28;20123;-73
2023/09/19 03:28:36;;;;;;;9.48;8.98;;;;;;;;;;4992801;28;20442;-72
2023/09/19 03:31:03;;;;;;;8.82;8.32;;;;;;;;;;4998113;28;20031;-73
2023/09/19 03:33:34;;;;;;;8.65;7.90;;;;;;;;;;4995038;28;20103;-72
2023/09/19 03:36:04;;;;;;;9.18;8.57;;;;;;;;;;4946626;28;20080;-71
2023/09/19 03:38:32;;;;;;;8.90;8.30;;;;;;;;;;4958485;28;20428;-71
2023/09/19 03:40:58;;;;;;;8.60;8.00;;;;;;;;;;4978765;28;20422;-73
2023/09/19 03:43:24;;;;;;;8.55;8.05;;;;;;;;;;4976225;28;20121;-73
2023/09/19 03:45:50;;;;;;;8.50;8.00;;;;;;;;;;4988621;28;20429;-73
2023/09/19 03:48:17;;;;;;;9.13;8.20;;;;;;;;;;4981760;28;20058;-73
2023/09/19 03:50:43;;;;;;;8.70;8.13;;;;;;;;;;4999638;28;20050;-73
2023/09/19 03:53:09;;;;;;;8.50;8.00;;;;;;;;;;4956237;28;20070;-72
2023/09/19 03:55:35;;;;;;;8.73;8.13;;;;;;;;;;4958966;28;20083;-72
2023/09/19 03:58:02;;;;;;;9.10;8.50;;;;;;;;;;4980799;28;20129;-73
2023/09/19 04:00:29;;;;;;;9.10;8.40;;;;;;;;;;4974933;28;20042;-73
2023/09/19 04:02:56;;;;;;;8.75;8.15;;;;;;;;;;4993362;28;20038;-72
2023/09/19 04:05:25;;;;;;;8.50;8.00;;;;;;;;;;4962221;28;20022;-73
2023/09/19 04:07:50;;;;;;;9.00;8.40;;;;;;;;;;4968958;28;20046;-73
2023/09/19 04:10:17;;;;;;;9.35;8.20;;;;;;;;;;4993271;28;20038;-73
2023/09/19 04:12:56;;;;;;;8.90;8.30;;;;;;;;;;4970892;28;20665;-73
2023/09/19 04:15:22;;;;;;;9.07;8.27;;;;;;;;;;4962392;28;20031;-72
2023/09/19 04:17:49;;;;;;;9.40;8.57;;;;;;;;;;4957743;28;20837;-73
2023/09/19 04:20:17;;;;;;;9.50;8.70;;;;;;;;;;4966032;28;20026;-72
2023/09/19 04:22:43;;;;;;;9.52;8.80;;;;;;;;;;4982900;28;20046;-73
2023/09/19 04:25:08;;;;;;;9.07;8.50;;;;;;;;;;4968946;28;20118;-74
2023/09/19 04:27:34;;;;;;;9.23;8.52;;;;;;;;;;4955249;28;20050;-73
2023/09/19 04:30:00;;;;;;;9.55;8.82;;;;;;;;;;4960577;28;20031;-73
2023/09/19 04:32:29;;;;;;;10.60;9.80;;;;;;;;;;4964273;28;20031;-73
2023/09/19 04:34:59;;;;;;;10.07;9.38;;;;;;;;;;4966903;28;20077;-72
2023/09/19 04:37:25;;;;;;;9.02;8.48;;;;;;;;;;4961695;28;20050;-72
2023/09/19 04:39:51;;;;;;;10.70;9.50;;;;;;;;;;4964493;28;20027;-73
2023/09/19 04:42:17;;;;;;;9.93;9.32;;;;;;;;;;4993746;28;20034;-73
2023/09/19 04:44:43;;;;;;;10.10;9.23;;;;;;;;;;4966439;28;20496;-72
2023/09/19 04:47:09;;;;;;;10.20;9.50;;;;;;;;;;4965589;28;20117;-72
2023/09/19 04:49:35;;;;;;;10.07;9.27;;;;;;;;;;4965452;28;20039;-73
2023/09/19 04:52:00;;;;;;;10.07;9.30;;;;;;;;;;4968385;28;20031;-73
2023/09/19 04:54:27;;;;;;;10.40;9.50;;;;;;;;;;4966253;28;20045;-72
2023/09/19 04:56:52;;;;;;;9.40;8.80;;;;;;;;;;4967538;28;20035;-72
2023/09/19 04:59:18;;;;;;;9.50;8.90;;;;;;;;;;4964729;28;20031;-73
2023/09/19 05:01:44;;;;;;;10.20;9.60;;;;;;;;;;4965688;28;20082;-72
2023/09/19 05:04:09;;;;;;;9.93;9.00;;;;;;;;;;4966027;28;20034;-73
2023/09/19 05:06:35;;;;;;;9.38;8.68;;;;;;;;;;4964074;28;20109;-71
2023/09/19 05:09:01;;;;;;;9.35;8.77;;;;;;;;;;4965046;28;20503;-73
2023/09/19 05:11:30;;;;;;;9.23;8.43;;;;;;;;;;4965151;28;20097;-74
2023/09/19 05:13:55;;;;;;;9.65;8.70;;;;;;;;;;4968120;28;20037;-72
2023/09/19 05:16:21;;;;;;;8.85;8.18;;;;;;;;;;4963550;28;20043;-73
2023/09/19 05:18:47;;;;;;;9.02;8.43;;;;;;;;;;4965666;28;20535;-73
2023/09/19 05:21:13;;;;;;;8.80;8.30;;;;;;;;;;4966092;28;20038;-74
2023/09/19 05:23:38;;;;;;;9.52;8.93;;;;;;;;;;4965624;28;20035;-74
2023/09/19 05:26:05;;;;;;;10.13;9.50;;;;;;;;;;4964068;28;20062;-74
2023/09/19 05:28:32;;;;;;;11.90;11.00;;;;;;;;;;4965179;28;20088;-74
2023/09/19 05:31:02;;;;;;;11.68;10.88;;;;;;;;;;4966213;28;20035;-74
2023/09/19 05:33:28;;;;;;;11.27;10.48;;;;;;;;;;4965770;28;20520;-74
2023/09/19 05:35:53;;;;;;;11.05;10.25;;;;;;;;;;4963780;28;20058;-74
2023/09/19 05:38:20;;;;;;;11.35;10.35;;;;;;;;;;4964653;28;20047;-74
2023/09/19 05:40:46;;;;;;;11.38;10.57;;;;;;;;;;4966001;28;20039;-74
2023/09/19 05:43:14;;;;;;;10.88;10.13;;;;;;;;;;4965955;28;20133;-75
2023/09/19 05:45:40;;;;;;;11.77;10.85;;;;;;;;;;4962328;28;20035;-74
2023/09/19 05:48:13;;;;;;;11.30;10.38;;;;;;;;;;4965966;28;20046;-74
2023/09/19 05:50:39;;;;;;;11.43;10.52;;;;;;;;;;4964850;28;20038;-74
2023/09/19 05:53:05;;;;;;;11.43;10.70;;;;;;;;;;4963001;28;20038;-74
2023/09/19 05:55:34;;;;;;;11.80;10.75;;;;;;;;;;4964272;28;20452;-74
2023/09/19 05:57:59;;;;;;;11.85;10.93;;;;;;;;;;4980087;28;20046;-74
2023/09/19 06:00:27;;;;;;;12.85;11.70;;;;;;;;;;4964294;28;20428;-74
2023/09/19 06:02:54;;;;;;;11.43;10.65;;;;;;;;;;4961873;28;20038;-73
2023/09/19 06:05:20;;;;;;;12.57;11.55;;;;;;;;;;4965140;28;20030;-73
2023/09/19 06:07:46;;;;;;;11.05;10.35;;;;;;;;;;4995917;28;20503;-74
2023/09/19 06:10:13;;;;;;;11.13;10.32;;;;;;;;;;4964929;28;20035;-74
2023/09/19 06:12:45;;;;;;;11.73;10.73;;;;;;;;;;4962831;28;20058;-74
2023/09/19 06:15:15;;;;;;;11.93;10.85;;;;;;;;;;4964392;28;20054;-74
2023/09/19 06:17:48;;;;;;;11.63;10.57;;;;;;;;;;4965230;28;20038;-74
2023/09/19 06:20:17;;;;;;;10.88;10.02;;;;;;;;;;4962830;28;20059;-74
2023/09/19 06:22:44;;;;;;;11.13;10.32;;;;;;;;;;4963849;28;20129;-73
2023/09/19 06:25:11;;;;;;;11.82;10.77;;;;;;;;;;4982185;28;20062;-73
2023/09/19 06:27:42;;;;;;;11.43;10.43;;;;;;;;;;4963145;28;20484;-73
2023/09/19 06:30:09;;;;;;;11.07;10.27;;;;;;;;;;4965113;28;20106;-74
2023/09/19 06:32:35;;;;;;;11.77;10.75;;;;;;;;;;4963710;28;20068;-73
2023/09/19 06:35:01;;;;;;;11.93;10.90;;;;;;;;;;4964077;28;20038;-74
2023/09/19 06:37:28;;;;;;;12.20;11.30;;;;;;;;;;4963636;28;20042;-74
2023/09/19 06:39:53;;;;;;;11.70;10.65;;;;;;;;;;4964429;28;20109;-74
2023/09/19 06:42:19;;;;;;;11.52;10.82;;;;;;;;;;4964026;28;20113;-74
2023/09/19 06:44:45;;;;;;;11.95;11.10;;;;;;;;;;4963918;28;20054;-74
2023/09/19 06:47:10;;;;;;;12.05;11.05;;;;;;;;;;4969634;28;20038;-75
2023/09/19 06:49:37;;;;;;;11.60;10.80;;;;;;;;;;4961108;28;20031;-72
2023/09/19 06:52:03;;;;;;;11.13;10.35;;;;;;;;;;4978767;28;20039;-73
2023/09/19 06:54:34;;;;;;;11.75;10.70;;;;;;;;;;4962534;28;20045;-73
2023/09/19 06:56:59;;;;;;;11.52;10.60;;;;;;;;;;4963803;28;20447;-74
2023/09/19 06:59:25;;;;;;;11.05;10.35;;;;;;;;;;4961897;28;20098;-74
2023/09/19 07:01:51;;;;;;;10.88;10.20;;;;;;;;;;4965603;28;20061;-74
2023/09/19 07:04:19;;;;;;;11.73;10.30;;;;;;;;;;4963637;28;20043;-74
2023/09/19 07:06:49;;;;;;;11.68;10.98;;;;;;;;;;4961050;28;20149;-75
2023/09/19 07:09:15;;;;;;;11.35;10.55;;;;;;;;;;4964391;28;20031;-74
2023/09/19 07:11:42;;;;;;;11.25;10.48;;;;;;;;;;4994822;28;20066;-74
2023/09/19 07:14:11;;;;;;;11.32;10.57;;;;;;;;;;4964804;28;20464;-74
2023/09/19 07:16:39;;;;;;;12.15;11.35;;;;;;;;;;4963110;28;20037;-74
2023/09/19 07:19:05;;;;;;;11.27;10.35;;;;;;;;;;4965468;28;20043;-74
2023/09/19 07:21:32;;;;;;;11.68;10.98;;;;;;;;;;4962906;28;20047;-74
2023/09/19 07:24:00;;;;;;;11.10;10.40;;;;;;;;;;4962842;28;20058;-74
2023/09/19 07:26:27;;;;;;;11.05;10.15;;;;;;;;;;4962765;28;20535;-74
2023/09/19 07:28:53;;;;;;;11.32;10.52;;;;;;;;;;4963701;28;20125;-74
2023/09/19 07:31:19;;;;;;;11.50;10.60;;;;;;;;;;4964484;28;20882;-74
2023/09/19 07:33:45;;;;;;;10.68;10.00;;;;;;;;;;4963937;28;20043;-74
2023/09/19 07:36:13;;;;;;;11.45;10.52;;;;;;;;;;4961349;28;20035;-74
2023/09/19 07:38:40;;;;;;;11.07;10.48;;;;;;;;;;4961568;28;20496;-74
2023/09/19 07:41:08;;;;;;;10.98;10.23;;;;;;;;;;4963466;28;20535;-74
2023/09/19 07:43:35;;;;;;;11.57;10.67;;;;;;;;;;4968367;28;20045;-73
2023/09/19 07:46:08;;;;;;;10.52;9.82;;;;;;;;;;4965933;28;20129;-74
2023/09/19 07:48:38;;;;;;;10.88;10.07;;;;;;;;;;4992666;28;20038;-74
2023/09/19 07:51:06;;;;;;;11.23;10.52;;;;;;;;;;4994526;28;20045;-74
2023/09/19 07:53:34;;;;;;;11.05;10.25;;;;;;;;;;4965673;28;20070;-74
2023/09/19 07:56:04;;;;;;;10.73;10.00;;;;;;;;;;4961387;28;20031;-74
2023/09/19 07:58:29;;;;;;;10.98;10.20;;;;;;;;;;4962146;28;20045;-74
2023/09/19 08:00:55;;;;;;;10.77;9.98;;;;;;;;;;4966469;28;20035;-74
2023/09/19 08:03:20;;;;;;;10.25;9.40;;;;;;;;;;4949637;28;20042;-73
2023/09/19 08:05:48;;;;;;;10.30;9.40;;;;;;;;;;4969273;28;20039;-73
2023/09/19 08:08:14;;;;;;;9.85;9.05;;;;;;;;;;4966560;28;20038;-73
2023/09/19 08:10:43;;;;;;;10.00;9.20;;;;;;;;;;4996310;28;20126;-73
2023/09/19 08:13:14;;;;;;;9.90;9.20;;;;;;;;;;4966783;28;20114;-73
2023/09/19 08:15:44;;;;;;;10.20;9.27;;;;;;;;;;4975195;28;20027;-74
2023/09/19 08:18:13;;;;;;;10.90;10.10;;;;;;;;;;4968804;28;20031;-73
2023/09/19 08:20:38;;;;;;;10.32;9.73;;;;;;;;;;4970166;28;20049;-73
2023/09/19 08:23:04;;;;;;;10.55;9.75;;;;;;;;;;4965700;28;20117;-73
2023/09/19 08:25:29;;;;;;;10.40;9.40;;;;;;;;;;4966249;28;20034;-73
2023/09/19 08:27:59;;;;;;;11.32;9.20;;;;;;;;;;4966800;28;20057;-73
2023/09/19 08:30:27;;;;;;;10.38;9.57;;;;;;;;;;4968133;28;20668;-73
2023/09/19 08:33:00;;;;;;;10.23;9.63;;;;;;;;;;4962769;28;20066;-73
2023/09/19 08:35:27;;;;;;;10.35;9.52;;;;;;;;;;4963867;28;20089;-74
2023/09/19 08:37:55;;;;;;;10.18;9.50;;;;;;;;;;4966835;28;20401;-73
2023/09/19 08:40:21;;;;;;;9.50;8.90;;;;;;;;;;4964803;28;20026;-73
2023/09/19 08:42:49;;;;;;;9.38;8.57;;;;;;;;;;4968561;28;20428;-73
2023/09/19 08:45:15;;;;;;;9.27;8.68;;;;;;;;;;4971768;28;20030;-72
2023/09/19 08:47:51;;;;;;;9.00;8.40;;;;;;;;;;4967013;28;20039;-72
2023/09/19 08:50:25;;;;;;;10.05;9.45;;;;;;;;;;4963294;28;20928;-72
2023/09/19 08:52:54;;;;;;;9.93;9.18;;;;;;;;;;4966596;28;20039;-73
2023/09/19 08:55:26;;;;;;;9.75;9.00;;;;;;;;;;4997283;28;20030;-74
2023/09/19 08:57:58;;;;;;;9.15;8.45;;;;;;;;;;4965498;28;20047;-73
2023/09/19 09:00:27;;;;;;;8.80;8.30;;;;;;;;;;4967281;28;20031;-73
2023/09/19 09:02:55;;;;;;;9.38;8.60;;;;;;;;;;4970297;28;20684;-73
2023/09/19 09:05:24;;;;;;;9.38;8.68;;;;;;;;;;4969965;28;20595;-73
2023/09/19 09:08:00;;;;;;;9.20;8.60;;;;;;;;;;4970430;28;20045;-73
2023/09/19 09:10:26;;;;;;;9.93;9.13;;;;;;;;;;4968529;28;20085;-73
2023/09/19 09:12:54;;;;;;;9.80;9.20;;;;;;;;;;4970005;28;20393;-73
2023/09/19 09:15:23;;;;;;;9.68;9.07;;;;;;;;;;4968435;28;20030;-73
2023/09/19 09:17:50;;;;;;;9.95;9.25;;;;;;;;;;4964888;28;20047;-73
2023/09/19 09:20:18;;;;;;;9.90;9.20;;;;;;;;;;4965906;28;20053;-73
2023/09/19 09:22:55;;;;;;;9.30;8.70;;;;;;;;;;4965973;28;20528;-73
2023/09/19 09:25:24;;;;;;;9.13;8.55;;;;;;;;;;4967012;28;20046;-73
2023/09/19 09:28:03;;;;;;;9.45;8.85;;;;;;;;;;4991894;28;20043;-72
2023/09/19 09:30:39;;;;;;;9.93;9.07;;;;;;;;;;4962267;28;20055;-73
2023/09/19 09:33:11;;;;;;;9.85;9.15;;;;;;;;;;4964055;28;20038;-73
2023/09/19 09:35:47;;;;;;;9.00;8.30;;;;;;;;;;4957232;28;20113;-73
2023/09/19 09:38:13;;;;;;;8.80;8.10;;;;;;;;;;4961173;28;20166;-73
2023/09/19 09:40:47;;;;;;;9.07;8.48;;;;;;;;;;4964218;28;20047;-72
2023/09/19 09:43:28;;;;;;;9.80;9.00;;;;;;;;;;4975673;28;20041;-73
2023/09/19 09:49:15;;;;;;;9.40;8.80;;;;;;;;;;4976066;28;20118;-73
2023/09/19 09:51:59;;;;;;;9.15;8.50;;;;;;;;;;4959488;28;20038;-73
2023/09/19 09:54:34;;;;;;;9.23;8.52;;;;;;;;;;4978620;28;20034;-72
2023/09/19 09:57:13;;;;;;;9.20;8.60;;;;;;;;;;4962584;28;20515;-72
2023/09/19 09:59:49;;;;;;;9.63;8.77;;;;;;;;;;4962835;28;20038;-73
2023/09/19 10:02:28;;;;;;;10.35;9.40;;;;;;;;;;4976381;28;20034;-70
2023/09/19 10:05:01;;;;;;;11.95;9.40;;;;;;;;;;4963643;28;20416;-73
2023/09/19 10:07:49;;;;;;;9.60;8.90;;;;;;;;;;4961300;28;20089;-72
2023/09/19 10:10:28;;;;;;;9.82;9.13;;;;;;;;;;4966628;28;20041;-72
2023/09/19 10:13:02;;;;;;;9.48;8.82;;;;;;;;;;4963314;28;20493;-72
2023/09/19 10:15:32;;;;;;;10.25;9.55;;;;;;;;;;4964582;28;20042;-74
2023/09/19 10:18:01;;;;;;;10.02;9.30;;;;;;;;;;4964301;28;20507;-75
2023/09/19 10:22:58;;;;;;;8.90;8.30;;;;;;;;;;4966927;28;19921;-74
2023/09/19 10:25:33;;;;;;;9.15;8.55;;;;;;;;;;4963519;28;20031;-74
2023/09/19 10:28:10;;;;;;;11.52;8.75;;;;;;;;;;4980812;28;20057;-73
2023/09/19 10:30:47;;;;;;;8.57;7.97;;;;;;;;;;4962517;28;20027;-73
2023/09/19 10:33:18;;;;;;;8.93;8.43;;;;;;;;;;4967034;28;20130;-73
2023/09/19 10:35:46;;;;;;;9.35;8.65;;;;;;;;;;4969274;28;20105;-74
2023/09/19 10:38:35;;;;;;;9.35;8.75;;;;;;;;;;4965915;28;20039;-74
2023/09/19 10:41:02;;;;;;;;;;;;;;;;;;4968603;28;20558;-74
2023/09/19 10:43:33;;;;;;;9.80;9.10;;;;;;;;;;4985835;28;19914;-73
2023/09/19 10:46:05;;;;;;;9.38;8.70;;;;;;;;;;4970904;28;20035;-72
2023/09/19 10:48:36;;;;;;;9.43;8.88;;;;;;;;;;4984454;28;20663;-73
2023/09/19 10:51:06;;;;;;;9.43;8.70;;;;;;;;;;4978219;28;20078;-73
2023/09/19 10:53:50;;;;;;;9.10;8.45;;;;;;;;;;4972291;28;20050;-74
2023/09/19 10:56:23;;;;;;;9.13;8.52;;;;;;;;;;4997739;28;20432;-74
2023/09/19 10:58:49;;;;;;;8.23;7.63;;;;;;;;;;4972308;28;20043;-72
2023/09/19 11:01:20;;;;;;;9.20;8.52;;;;;;;;;;4988160;28;20038;-73
2023/09/19 11:03:48;;;;;;;9.20;8.50;;;;;;;;;;4968557;28;20045;-74
2023/09/19 11:06:18;;;;;;;8.70;8.00;;;;;;;;;;4964103;28;20086;-72
2023/09/19 11:11:52;;;;;;;8.80;8.20;;;;;;;;;;4973179;28;20058;-72
2023/09/19 11:14:25;;;;;;;8.88;8.27;;;;;;;;;;4973618;28;20089;-72
2023/09/19 11:17:11;;;;;;;8.90;8.30;;;;;;;;;;4966123;28;20045;-72
2023/09/19 11:25:34;;;;;;;8.38;7.78;;;;;;;;;;4963053;28;20130;-72
2023/09/19 11:28:05;;;;;;;8.82;8.13;;;;;;;;;;4962268;28;20049;-72
2023/09/19 11:30:36;;;;;;;9.23;8.52;;;;;;;;;;4964005;28;20038;-72
2023/09/19 11:33:23;;;;;;;9.20;8.60;;;;;;;;;;4965850;28;20061;-72
2023/09/19 11:36:09;;;;;;;9.00;8.38;;;;;;;;;;4967278;28;20233;-72
2023/09/19 11:38:45;;;;;;;8.32;7.82;;;;;;;;;;4961602;28;20539;-72
2023/09/19 11:41:19;;;;;;;9.15;8.48;;;;;;;;;;4962914;28;20089;-71
2023/09/19 11:43:46;;;;;;;9.73;8.93;;;;;;;;;;4964640;28;20043;-72
2023/09/19 11:46:16;;;;;;;9.18;8.27;;;;;;;;;;4992135;28;20492;-71
2023/09/19 11:48:44;;;;;;;9.00;8.30;;;;;;;;;;4964611;28;20216;-72
2023/09/19 11:51:18;;;;;;;9.33;8.53;;;;;;;;;;4959922;28;20065;-72
2023/09/19 11:53:54;;;;;;;9.18;8.57;;;;;;;;;;4960614;28;20054;-71
2023/09/19 11:56:25;;;;;;;9.52;8.82;;;;;;;;;;4961682;28;20066;-71
2023/09/19 11:58:56;;;;;;;9.20;8.50;;;;;;;;;;4959896;28;20058;-72
2023/09/19 12:01:32;;;;;;;9.38;8.60;;;;;;;;;;4963188;28;20123;-72
2023/09/19 12:03:59;;;;;;;9.50;8.80;;;;;;;;;;4959981;28;20042;-71
2023/09/19 12:06:26;;;;;;;9.45;8.85;;;;;;;;;;4960304;28;20476;-72
2023/09/19 12:08:54;;;;;;;9.80;9.20;;;;;;;;;;4973984;28;20038;-72
2023/09/19 12:11:23;;;;;;;9.40;8.75;;;;;;;;;;4962926;28;20042;-71
2023/09/19 12:13:53;;;;;;;;;;;;;;;;;;4962600;28;20601;-71
2023/09/19 12:16:24;;;;;;;9.48;8.50;;;;;;;;;;4961398;28;20487;-72
2023/09/19 12:18:50;;;;;;;9.25;8.55;;;;;;;;;;4962894;28;20534;-72
2023/09/19 12:21:32;;;;;;;9.43;8.82;;;;;;;;;;4975053;28;20166;-73
2023/09/19 12:24:13;;;;;;;9.65;9.02;;;;;;;;;;4959803;28;20046;-73
2023/09/19 12:26:43;;;;;;;9.30;8.60;;;;;;;;;;4958334;28;20051;-74
2023/09/19 12:29:14;;;;;;;9.10;8.50;;;;;;;;;;4958846;28;20668;-73
2023/09/19 12:31:59;;;;;;;9.52;8.70;;;;;;;;;;4959665;28;20035;-72
2023/09/19 12:34:30;;;;;;;9.52;8.93;;;;;;;;;;4973814;28;20113;-72
2023/09/19 12:37:23;;;;;;;9.80;9.10;;;;;;;;;;4975167;28;20564;-73
2023/09/19 12:39:53;;;;;;;9.90;9.20;;;;;;;;;;4959868;28;20034;-73
2023/09/19 12:42:23;;;;;;;10.15;9.35;;;;;;;;;;4960329;28;20046;-73
2023/09/19 12:44:56;;;;;;;9.85;9.15;;;;;;;;;;4958536;28;20058;-73
2023/09/19 12:47:24;;;;;;;10.00;9.40;;;;;;;;;;4991770;28;20515;-72
2023/09/19 12:50:17;;;;;;;10.05;9.32;;;;;;;;;;4962873;28;20129;-72
2023/09/19 12:52:47;;;;;;;10.00;9.40;;;;;;;;;;4964226;28;20043;-72
2023/09/19 12:55:27;;;;;;;10.43;9.50;;;;;;;;;;4968976;28;20069;-73
2023/09/19 12:57:57;;;;;;;10.25;9.45;;;;;;;;;;4968648;28;20035;-72
2023/09/19 13:00:37;;;;;;;10.63;9.90;;;;;;;;;;4959278;28;20035;-71
2023/09/19 13:03:16;;;;;;;10.30;9.60;;;;;;;;;;4968015;28;20042;-72
2023/09/19 13:05:55;;;;;;;10.55;9.85;;;;;;;;;;4968457;28;20501;-73
2023/09/19 13:08:26;;;;;;;10.60;9.80;;;;;;;;;;4963607;28;20038;-71
2023/09/19 13:11:00;;;;;;;9.98;9.30;;;;;;;;;;4967913;28;20031;-73
2023/09/19 13:13:27;;;;;;;10.10;9.50;;;;;;;;;;4978687;28;20042;-70
2023/09/19 13:15:53;;;;;;;10.30;9.63;;;;;;;;;;4969652;28;20587;-71
2023/09/19 13:18:20;;;;;;;10.18;9.38;;;;;;;;;;4967864;28;20794;-73
2023/09/19 13:21:06;;;;;;;10.25;9.55;;;;;;;;;;4969381;28;20121;-73
2023/09/19 13:23:32;;;;;;;10.30;9.40;;;;;;;;;;4960025;28;20042;-73
2023/09/19 13:25:57;;;;;;;10.32;9.40;;;;;;;;;;4962065;28;20037;-72
2023/09/19 13:28:23;;;;;;;10.00;9.30;;;;;;;;;;4963658;28;20062;-71
2023/09/19 13:30:48;;;;;;;10.05;9.25;;;;;;;;;;4963249;28;20066;-73
2023/09/19 13:33:20;;;;;;;10.10;9.40;;;;;;;;;;4964380;28;20143;-73
2023/09/19 13:35:48;;;;;;;10.55;9.63;;;;;;;;;;4962433;28;20113;-73
2023/09/19 13:38:18;;;;;;;9.60;8.95;;;;;;;;;;4961246;28;20504;-73
2023/09/19 13:40:44;;;;;;;10.15;9.55;;;;;;;;;;4961448;28;20031;-72
2023/09/19 13:43:11;;;;;;;9.65;9.00;;;;;;;;;;4993870;28;20038;-71
2023/09/19 13:45:37;;;;;;;10.13;9.35;;;;;;;;;;4962409;28;20066;-73
2023/09/19 13:48:03;;;;;;;10.20;9.40;;;;;;;;;;4965051;28;20038;-73
2023/09/19 13:50:29;;;;;;;10.10;9.40;;;;;;;;;;4961548;28;20105;-73
2023/09/19 13:52:55;;;;;;;9.93;9.23;;;;;;;;;;4964383;28;20045;-73
2023/09/19 13:55:21;;;;;;;9.85;9.13;;;;;;;;;;4962860;28;20035;-73
2023/09/19 13:57:55;;;;;;;9.90;9.15;;;;;;;;;;4961898;28;20039;-72
2023/09/19 14:00:22;;;;;;;10.30;9.30;;;;;;;;;;4963055;28;20562;-73
2023/09/19 14:02:48;;;;;;;10.50;9.80;;;;;;;;;;4959672;28;20053;-71
2023/09/19 14:05:16;;;;;;;10.27;9.40;;;;;;;;;;4965138;28;20039;-72
2023/09/19 14:07:45;;;;;;;10.00;9.30;;;;;;;;;;4961382;28;20043;-72
2023/09/19 14:10:11;;;;;;;10.15;9.32;;;;;;;;;;4962678;28;20042;-70
2023/09/19 14:12:40;;;;;;;9.77;9.13;;;;;;;;;;4961497;28;20496;-73
2023/09/19 14:15:08;;;;;;;9.80;9.20;;;;;;;;;;4969175;28;20038;-73
2023/09/19 14:17:33;;;;;;;10.00;9.40;;;;;;;;;;4967448;28;20078;-73
2023/09/19 14:19:59;;;;;;;10.02;9.27;;;;;;;;;;4959674;28;20039;-72
2023/09/19 14:22:25;;;;;;;10.18;9.40;;;;;;;;;;4962503;28;20062;-71
2023/09/19 14:24:50;;;;;;;10.40;9.60;;;;;;;;;;4965857;28;20034;-73
2023/09/19 14:27:16;;;;;;;9.98;9.10;;;;;;;;;;4962168;28;20026;-71
2023/09/19 14:29:42;;;;;;;10.00;9.40;;;;;;;;;;4996022;28;20093;-73
2023/09/19 14:32:07;;;;;;;10.45;9.40;;;;;;;;;;4972736;28;20042;-73
2023/09/19 14:34:33;;;;;;;10.02;9.32;;;;;;;;;;4970225;28;20428;-72
2023/09/19 14:36:59;;;;;;;9.70;9.02;;;;;;;;;;5000507;28;20062;-72
2023/09/19 14:39:24;;;;;;;9.77;8.90;;;;;;;;;;4969207;28;20034;-71
2023/09/19 14:41:50;;;;;;;9.43;8.82;;;;;;;;;;4964387;28;20045;-74
2023/09/19 14:44:16;;;;;;;9.50;8.82;;;;;;;;;;4966384;28;20141;-73
2023/09/19 14:46:44;;;;;;;9.75;9.00;;;;;;;;;;4967984;28;20046;-73
2023/09/19 14:49:10;;;;;;;9.73;9.02;;;;;;;;;;4967796;28;20039;-70
2023/09/19 14:51:39;;;;;;;10.13;9.32;;;;;;;;;;4965513;28;20373;-72
2023/09/19 14:54:07;;;;;;;;;;;;;;;;;;4964164;28;20046;-73
2023/09/19 14:56:32;;;;;;;10.07;9.27;;;;;;;;;;4961077;28;19918;-74
2023/09/19 14:58:58;;;;;;;9.40;8.80;;;;;;;;;;4966191;28;20138;-73
2023/09/19 15:01:24;;;;;;;9.90;9.00;;;;;;;;;;4963369;28;20146;-72
2023/09/19 15:03:49;;;;;;;9.52;8.93;;;;;;;;;;4962802;28;20535;-73
2023/09/19 15:06:16;;;;;;;9.70;8.90;;;;;;;;;;4963705;28;20035;-72
2023/09/19 15:08:50;;;;;;;9.68;9.07;;;;;;;;;;4962819;28;20102;-71
2023/09/19 15:11:20;;;;;;;9.45;8.85;;;;;;;;;;4964247;28;20571;-70